createdAt,value
2022-10-19T00:02:30.755Z,12.13
2022-10-19T00:05:33.241Z,12.07
2022-10-19T00:08:35.701Z,13.02
2022-10-19T00:11:40.407Z,13.95
2022-10-19T00:14:42.820Z,15.90
2022-10-19T00:17:45.194Z,14.93
2022-10-19T00:20:47.681Z,15.47
2022-10-19T00:23:50.126Z,14.65
2022-10-19T00:26:52.543Z,14.32
2022-10-19T00:29:54.910Z,14.35
2022-10-19T00:32:57.447Z,16.10
2022-10-19T00:35:59.806Z,14.30
2022-10-19T00:39:04.615Z,15.48
2022-10-19T00:42:10.954Z,15.30
2022-10-19T00:45:16.305Z,17.60
2022-10-19T00:48:30.677Z,16.58
2022-10-19T00:51:35.060Z,16.30
2022-10-19T00:54:39.239Z,13.98
2022-10-19T00:57:41.791Z,15.35
2022-10-19T01:00:44.285Z,14.23
2022-10-19T01:03:46.815Z,14.45
2022-10-19T01:06:49.234Z,15.33
2022-10-19T01:09:52.736Z,15.18
2022-10-19T01:13:15.278Z,14.32
2022-10-19T01:16:27.478Z,15.18
2022-10-19T01:19:35.671Z,13.57
2022-10-19T01:23:08.862Z,14.47
2022-10-19T01:26:32.945Z,13.75
2022-10-19T01:30:12.941Z,14.38
2022-10-19T01:33:18.230Z,15.63
2022-10-19T01:36:33.020Z,14.52
2022-10-19T01:39:46.409Z,14.50
2022-10-19T01:42:58.396Z,15.23
2022-10-19T01:46:32.070Z,13.57
2022-10-19T01:49:47.510Z,14.60
2022-10-19T01:52:50.978Z,15.30
2022-10-19T01:55:54.385Z,15.90
2022-10-19T01:58:58.372Z,14.55
2022-10-19T02:02:03.364Z,16.15
2022-10-19T02:05:06.539Z,15.30
2022-10-19T02:08:19.310Z,16.15
2022-10-19T02:11:23.468Z,14.67
2022-10-19T02:14:31.222Z,16.60
2022-10-19T02:17:37.419Z,16.02
2022-10-19T02:20:40.009Z,13.63
2022-10-19T02:23:42.555Z,13.25
2022-10-19T02:26:45.223Z,13.43
2022-10-19T02:29:47.938Z,14.48
2022-10-19T02:32:50.756Z,14.13
2022-10-19T02:35:53.239Z,12.57
2022-10-19T02:38:55.607Z,12.73
2022-10-19T02:42:03.491Z,13.17
2022-10-19T02:45:17.746Z,13.30
2022-10-19T02:48:22.941Z,13.45
2022-10-19T02:51:36.854Z,13.35
2022-10-19T02:54:40.859Z,12.43
2022-10-19T02:57:43.247Z,12.10
2022-10-19T03:00:45.691Z,11.95
2022-10-19T03:03:48.460Z,12.32
2022-10-19T03:06:50.827Z,12.43
2022-10-19T03:09:53.268Z,12.15
2022-10-19T03:12:58.173Z,12.10
2022-10-19T03:16:11.115Z,12.30
2022-10-19T03:19:13.806Z,11.65
2022-10-19T03:22:16.831Z,11.73
2022-10-19T03:25:19.268Z,12.65
2022-10-19T03:28:21.627Z,11.97
2022-10-19T03:31:25.681Z,11.63
2022-10-19T03:34:28.115Z,12.57
2022-10-19T03:37:30.496Z,12.98
2022-10-19T03:40:33.663Z,12.95
2022-10-19T03:43:36.051Z,12.43
2022-10-19T03:46:39.300Z,14.13
2022-10-19T03:49:43.508Z,13.45
2022-10-19T03:52:45.884Z,12.68
2022-10-19T03:55:48.218Z,13.75
2022-10-19T03:58:51.736Z,11.83
2022-10-19T04:01:54.118Z,13.27
2022-10-19T04:04:56.488Z,12.27
2022-10-19T04:07:58.891Z,12.32
2022-10-19T04:11:03.165Z,12.70
2022-10-19T04:14:05.815Z,12.30
2022-10-19T04:17:09.143Z,13.38
2022-10-19T04:20:11.708Z,19.10
2022-10-19T04:26:23.223Z,16.27
2022-10-19T04:29:29.598Z,16.23
2022-10-19T04:32:33.092Z,15.32
2022-10-19T04:35:35.423Z,14.55
2022-10-19T04:38:38.450Z,15.85
2022-10-19T04:41:40.948Z,23.88
2022-10-19T04:44:43.502Z,23.00
2022-10-19T04:47:45.845Z,20.45
2022-10-19T04:50:48.256Z,16.17
2022-10-19T04:53:59.546Z,15.65
2022-10-19T04:57:02.326Z,14.23
2022-10-19T05:00:05.390Z,15.13
2022-10-19T05:03:07.969Z,16.88
2022-10-19T05:06:11.432Z,16.05
2022-10-19T05:09:13.905Z,15.65
2022-10-19T05:12:16.465Z,16.88
2022-10-19T05:15:19.313Z,16.00
2022-10-19T05:18:21.770Z,14.82
2022-10-19T05:21:24.876Z,18.73
2022-10-19T05:24:27.509Z,20.60
2022-10-19T05:27:29.911Z,19.67
2022-10-19T05:30:32.902Z,19.73
2022-10-19T05:33:35.926Z,21.83
2022-10-19T05:36:39.927Z,17.30
2022-10-19T05:39:42.902Z,16.27
2022-10-19T05:42:45.392Z,16.10
2022-10-19T05:45:47.945Z,16.63
2022-10-19T05:48:50.469Z,15.20
2022-10-19T05:51:53.017Z,16.98
2022-10-19T05:54:56.872Z,17.88
2022-10-19T05:57:59.320Z,16.48
2022-10-19T06:01:02.692Z,31.03
2022-10-19T06:04:07.100Z,20.45
2022-10-19T06:07:09.640Z,17.45
2022-10-19T06:10:12.466Z,16.65
2022-10-19T06:13:16.045Z,15.50
2022-10-19T06:16:20.194Z,16.17
2022-10-19T06:19:22.674Z,21.25
2022-10-19T06:22:25.093Z,17.02
2022-10-19T06:25:27.469Z,21.15
2022-10-19T06:28:30.068Z,23.50
2022-10-19T06:31:34.813Z,17.53
2022-10-19T06:34:37.240Z,22.55
2022-10-19T06:37:39.675Z,19.17
2022-10-19T06:40:42.752Z,17.98
2022-10-19T06:43:52.311Z,21.02
2022-10-19T06:46:54.643Z,22.13
2022-10-19T06:49:57.553Z,29.27
2022-10-19T06:53:00.105Z,29.85
2022-10-19T06:56:04.772Z,26.55
2022-10-19T06:59:07.136Z,22.88
2022-10-19T07:02:13.082Z,21.20
2022-10-19T07:05:15.705Z,19.77
2022-10-19T07:08:18.150Z,18.05
2022-10-19T07:11:22.503Z,26.25
2022-10-19T07:14:25.389Z,21.63
2022-10-19T07:17:27.851Z,21.90
2022-10-19T07:20:30.449Z,18.77
2022-10-19T07:23:34.640Z,16.00
2022-10-19T07:26:37.064Z,14.60
2022-10-19T07:29:39.477Z,13.32
2022-10-19T07:32:46.746Z,15.17
2022-10-19T07:35:49.687Z,14.00
2022-10-19T07:38:52.688Z,11.25
2022-10-19T07:41:55.094Z,11.25
2022-10-19T07:44:57.559Z,10.45
2022-10-19T07:48:00.171Z,10.83
2022-10-19T07:51:06.393Z,11.27
2022-10-19T07:54:09.614Z,10.07
2022-10-19T08:02:20.619Z,15.57
2022-10-19T08:05:23.134Z,12.27
2022-10-19T08:08:25.889Z,14.10
2022-10-19T08:11:31.275Z,27.85
2022-10-19T08:14:34.118Z,11.43
2022-10-19T08:17:37.062Z,12.20
2022-10-19T08:20:45.766Z,12.07
2022-10-19T08:23:48.812Z,10.13
2022-10-19T08:26:52.247Z,6.22
2022-10-19T08:29:54.963Z,4.38
2022-10-19T08:32:57.367Z,3.75
2022-10-19T08:35:59.707Z,4.23
2022-10-19T08:39:05.277Z,5.53
2022-10-19T08:42:57.547Z,3.90
2022-10-19T08:46:33.785Z,7.85
2022-10-19T08:49:36.505Z,4.30
2022-10-19T08:52:39.336Z,3.00
2022-10-19T08:55:54.563Z,3.10
2022-10-19T08:59:12.970Z,3.70
2022-10-19T09:02:20.803Z,3.72
2022-10-19T09:05:40.655Z,7.25
2022-10-19T09:08:44.116Z,2.83
2022-10-19T09:11:50.326Z,1.92
2022-10-19T09:14:59.784Z,1.92
2022-10-19T09:18:03.607Z,1.90
2022-10-19T09:21:20.839Z,1.77
2022-10-19T09:24:44.428Z,1.40
2022-10-19T09:27:49.840Z,0.98
2022-10-19T09:30:55.805Z,0.85
2022-10-19T09:34:26.436Z,2.60
2022-10-19T09:40:37.614Z,1.00
2022-10-19T09:43:45.123Z,1.42
2022-10-19T09:47:13.922Z,1.80
2022-10-19T09:50:25.954Z,1.17
2022-10-19T09:53:29.839Z,0.75
2022-10-19T09:56:38.546Z,0.80
2022-10-19T09:59:42.581Z,0.50
2022-10-19T10:02:53.431Z,0.32
2022-10-19T10:05:58.695Z,0.55
2022-10-19T10:09:01.826Z,2.50
2022-10-19T10:12:04.711Z,0.30
2022-10-19T10:15:07.827Z,0.57
2022-10-19T10:18:16.129Z,0.52
2022-10-19T10:21:25.784Z,0.47
2022-10-19T10:24:31.305Z,0.47
2022-10-19T10:27:38.935Z,0.50
2022-10-19T10:30:41.936Z,0.40
2022-10-19T10:33:45.555Z,0.40
2022-10-19T10:36:53.928Z,1.00
2022-10-19T10:40:00.528Z,0.30
2022-10-19T10:43:15.909Z,0.70
2022-10-19T10:46:22.381Z,0.75
2022-10-19T10:49:28.386Z,0.60
2022-10-19T10:52:31.461Z,0.63
2022-10-19T10:55:34.423Z,0.57
2022-10-19T10:59:02.457Z,0.50
2022-10-19T11:02:11.927Z,0.47
2022-10-19T11:05:20.577Z,0.70
2022-10-19T11:08:47.088Z,0.63
2022-10-19T11:11:55.886Z,1.13
2022-10-19T11:15:11.960Z,0.87
2022-10-19T11:18:27.267Z,0.70
2022-10-19T11:21:42.986Z,0.73
2022-10-19T11:25:12.615Z,1.10
2022-10-19T11:28:42.920Z,0.60
2022-10-19T11:31:55.418Z,2.43
2022-10-19T11:35:06.177Z,2.28
2022-10-19T11:38:20.347Z,1.60
2022-10-19T11:41:27.850Z,2.28
2022-10-19T11:44:43.608Z,2.67
2022-10-19T11:48:04.392Z,1.40
2022-10-19T11:51:25.828Z,1.38
2022-10-19T11:54:49.446Z,1.30
2022-10-19T11:58:17.953Z,3.83
2022-10-19T12:01:46.634Z,0.98
2022-10-19T12:05:02.140Z,0.77
2022-10-19T12:08:16.500Z,1.38
2022-10-19T12:11:36.596Z,1.60
2022-10-19T12:14:40.795Z,1.35
2022-10-19T12:17:45.531Z,1.60
2022-10-19T12:20:51.529Z,1.20
2022-10-19T12:23:54.816Z,2.50
2022-10-19T12:26:57.981Z,1.63
2022-10-19T12:30:08.026Z,2.05
2022-10-19T12:33:21.301Z,1.65
2022-10-19T12:36:33.104Z,1.67
2022-10-19T12:39:49.915Z,2.05
2022-10-19T12:43:33.694Z,2.10
2022-10-19T12:46:42.702Z,2.60
2022-10-19T12:49:50.627Z,2.80
2022-10-19T12:52:55.310Z,2.10
2022-10-19T12:55:59.268Z,2.50
2022-10-19T12:59:01.953Z,1.75
2022-10-19T13:02:25.636Z,2.05
2022-10-19T13:05:29.884Z,6.15
2022-10-19T13:08:39.070Z,5.23
2022-10-19T13:12:25.851Z,3.00
2022-10-19T13:15:33.975Z,4.85
2022-10-19T13:19:01.191Z,6.05
2022-10-19T13:22:25.737Z,7.63
2022-10-19T13:25:41.503Z,7.70
2022-10-19T13:28:54.551Z,6.22
2022-10-19T13:32:35.632Z,7.47
2022-10-19T13:35:39.031Z,7.05
2022-10-19T13:38:50.392Z,14.40
2022-10-19T13:41:54.180Z,18.70
2022-10-19T13:44:56.724Z,8.65
2022-10-19T13:48:10.276Z,5.55
2022-10-19T13:51:33.631Z,5.97
2022-10-19T13:55:11.601Z,6.10
2022-10-19T13:58:38.450Z,5.33
2022-10-19T14:02:15.140Z,4.82
2022-10-19T14:05:43.472Z,4.63
2022-10-19T14:09:23.805Z,6.38
2022-10-19T14:12:29.724Z,5.90
2022-10-19T14:15:34.654Z,4.60
2022-10-19T14:18:37.707Z,4.18
2022-10-19T14:21:40.136Z,4.10
2022-10-19T14:24:42.493Z,7.75
2022-10-19T14:27:46.205Z,9.80
2022-10-19T14:30:55.775Z,28.33
2022-10-19T14:34:01.664Z,6.25
2022-10-19T14:37:04.095Z,5.78
2022-10-19T14:40:26.784Z,4.68
2022-10-19T14:43:31.674Z,5.10
2022-10-19T14:46:34.732Z,11.70
2022-10-19T14:49:37.256Z,7.22
2022-10-19T14:52:40.410Z,4.47
2022-10-19T14:55:43.186Z,4.55
2022-10-19T14:58:50.529Z,11.18
2022-10-19T15:01:57.428Z,8.70
2022-10-19T15:05:02.039Z,9.60
2022-10-19T15:08:11.489Z,9.70
2022-10-19T15:11:40.909Z,8.23
2022-10-19T15:14:43.500Z,9.88
2022-10-19T15:17:54.003Z,6.53
2022-10-19T15:21:12.071Z,5.00
2022-10-19T15:24:26.615Z,21.10
2022-10-19T15:27:47.202Z,13.45
2022-10-19T15:31:04.384Z,7.78
2022-10-19T15:34:35.806Z,5.97
2022-10-19T15:37:41.901Z,7.30
2022-10-19T15:40:46.053Z,9.43
2022-10-19T15:43:50.732Z,8.60
2022-10-19T15:47:14.786Z,6.05
2022-10-19T15:50:31.554Z,6.53
2022-10-19T15:53:33.943Z,7.20
2022-10-19T15:56:39.144Z,18.52
2022-10-19T15:59:41.591Z,5.75
2022-10-19T16:02:44.228Z,6.72
2022-10-19T16:05:47.198Z,6.30
2022-10-19T16:08:51.249Z,5.70
2022-10-19T16:11:57.088Z,5.55
2022-10-19T16:14:59.488Z,4.65
2022-10-19T16:18:02.073Z,4.75
2022-10-19T16:21:05.284Z,5.30
2022-10-19T16:24:08.095Z,4.07
2022-10-19T16:27:15.041Z,3.65
2022-10-19T16:30:17.893Z,4.13
2022-10-19T16:33:20.579Z,5.03
2022-10-19T16:36:23.060Z,4.63
2022-10-19T16:39:25.663Z,4.88
2022-10-19T16:42:30.449Z,3.30
2022-10-19T16:45:33.453Z,2.05
2022-10-19T16:48:35.966Z,1.85
2022-10-19T16:51:42.116Z,2.30
2022-10-19T16:54:44.465Z,2.50
2022-10-19T16:57:46.823Z,2.97
2022-10-19T17:00:49.259Z,3.30
2022-10-19T17:03:51.923Z,2.03
2022-10-19T17:06:54.583Z,2.97
2022-10-19T17:09:57.159Z,2.85
2022-10-19T17:12:59.983Z,2.60
2022-10-19T17:16:03.693Z,1.73
2022-10-19T17:19:08.127Z,1.90
2022-10-19T17:22:11.016Z,8.63
2022-10-19T17:25:13.710Z,9.88
2022-10-19T17:28:16.121Z,7.13
2022-10-19T17:31:19.002Z,2.65
2022-10-19T17:34:21.780Z,3.15
2022-10-19T17:37:24.460Z,4.73
2022-10-19T17:40:33.134Z,3.63
2022-10-19T17:43:37.984Z,3.20
2022-10-19T17:46:40.676Z,4.57
2022-10-19T17:49:43.520Z,7.47
2022-10-19T17:52:46.736Z,2.97
2022-10-19T17:55:49.136Z,3.47
2022-10-19T17:58:52.465Z,3.28
2022-10-19T18:01:55.156Z,10.95
2022-10-19T18:04:57.829Z,10.35
2022-10-19T18:08:00.431Z,7.23
2022-10-19T18:11:07.699Z,22.48
2022-10-19T18:14:11.634Z,7.68
2022-10-19T18:17:14.244Z,3.13
2022-10-19T18:20:19.645Z,4.75
2022-10-19T18:23:22.447Z,1.87
2022-10-19T18:26:27.380Z,1.67
2022-10-19T18:29:30.260Z,1.30
2022-10-19T18:32:33.232Z,1.45
2022-10-19T18:35:37.395Z,1.25
2022-10-19T18:38:40.245Z,2.00
2022-10-19T18:41:44.423Z,5.43
2022-10-19T18:44:47.358Z,5.13
2022-10-19T18:47:51.120Z,2.95
2022-10-19T18:50:53.972Z,1.67
2022-10-19T18:53:56.675Z,1.20
2022-10-19T18:56:59.847Z,2.13
2022-10-19T19:00:02.541Z,1.00
2022-10-19T19:03:05.270Z,3.40
2022-10-19T19:06:11.188Z,2.00
2022-10-19T19:09:14.166Z,1.70
2022-10-19T19:12:17.216Z,2.28
2022-10-19T19:15:20.187Z,1.52
2022-10-19T19:18:23.193Z,1.50
2022-10-19T19:21:28.452Z,1.45
2022-10-19T19:24:32.770Z,0.87
2022-10-19T19:27:35.417Z,1.20
2022-10-19T19:30:42.753Z,1.02
2022-10-19T19:33:46.123Z,1.25
2022-10-19T19:36:49.161Z,1.20
2022-10-19T19:39:51.767Z,1.30
2022-10-19T19:42:54.368Z,0.65
2022-10-19T19:46:00.036Z,1.10
2022-10-19T19:49:05.347Z,1.20
2022-10-19T19:52:08.000Z,0.60
2022-10-19T19:55:10.600Z,0.73
2022-10-19T19:58:15.477Z,1.27
2022-10-19T20:01:19.739Z,1.70
2022-10-19T20:04:22.450Z,0.98
2022-10-19T20:07:26.841Z,0.65
2022-10-19T20:10:30.279Z,0.27
2022-10-19T20:13:33.437Z,0.40
2022-10-19T20:16:36.977Z,0.32
2022-10-19T20:19:39.712Z,0.50
2022-10-19T20:22:46.201Z,0.70
2022-10-19T20:25:48.831Z,0.67
2022-10-19T20:28:52.140Z,0.40
2022-10-19T20:31:55.933Z,0.60
2022-10-19T20:34:59.955Z,0.57
2022-10-19T20:38:04.219Z,0.60
2022-10-19T20:41:09.262Z,0.63
2022-10-19T20:44:11.655Z,0.52
2022-10-19T20:47:14.176Z,0.63
2022-10-19T20:50:20.599Z,0.40
2022-10-19T20:53:24.325Z,0.50
2022-10-19T20:56:29.447Z,1.60
2022-10-19T20:59:33.298Z,0.47
2022-10-19T21:02:36.095Z,0.75
2022-10-19T21:05:38.907Z,0.55
2022-10-19T21:08:41.513Z,0.50
2022-10-19T21:11:45.290Z,1.13
2022-10-19T21:14:49.157Z,1.63
2022-10-19T21:17:51.548Z,0.90
2022-10-19T21:20:53.931Z,0.63
2022-10-19T21:23:58.919Z,0.85
2022-10-19T21:27:02.628Z,0.90
2022-10-19T21:30:05.309Z,0.40
2022-10-19T21:33:07.667Z,0.30
2022-10-19T21:36:10.900Z,0.50
2022-10-19T21:39:13.640Z,0.57
2022-10-19T21:42:16.033Z,0.83
2022-10-19T21:45:29.849Z,0.90
2022-10-19T21:48:34.028Z,0.50
2022-10-19T21:51:39.899Z,0.70
2022-10-19T21:54:42.376Z,0.60
2022-10-19T21:57:46.480Z,0.50
2022-10-19T22:00:50.158Z,0.80
2022-10-19T22:04:00.262Z,0.90
2022-10-19T22:07:02.635Z,1.15
2022-10-19T22:10:05.389Z,0.60
2022-10-19T22:13:07.904Z,0.70
2022-10-19T22:16:19.037Z,0.77
2022-10-19T22:19:21.520Z,0.63
2022-10-19T22:22:23.890Z,0.63
2022-10-19T22:25:26.198Z,0.70
2022-10-19T22:28:28.771Z,0.83
2022-10-19T22:31:32.243Z,0.80
2022-10-19T22:34:34.584Z,0.77
2022-10-19T22:37:36.990Z,0.60
2022-10-19T22:40:41.396Z,0.70
2022-10-19T22:43:43.811Z,0.70
2022-10-19T22:46:46.132Z,0.70
2022-10-19T22:49:48.666Z,0.90
2022-10-19T22:52:51.040Z,1.02
2022-10-19T22:55:53.451Z,0.98
2022-10-19T22:59:00.289Z,0.90
2022-10-19T23:02:02.848Z,0.70
2022-10-19T23:05:05.701Z,0.57
2022-10-19T23:08:08.074Z,0.60
2022-10-19T23:11:10.759Z,0.90
2022-10-19T23:14:13.101Z,0.53
2022-10-19T23:17:15.451Z,0.70
2022-10-19T23:20:19.564Z,0.88
2022-10-19T23:23:22.459Z,1.00
2022-10-19T23:26:25.102Z,1.13
2022-10-19T23:29:27.606Z,0.80
2022-10-19T23:32:30.146Z,0.55
2022-10-19T23:35:32.475Z,0.80
2022-10-19T23:38:35.634Z,0.75
2022-10-19T23:41:38.061Z,0.93
2022-10-19T23:44:40.432Z,1.10
2022-10-19T23:47:42.771Z,0.90
2022-10-19T23:50:56.699Z,0.30
2022-10-19T23:53:59.434Z,1.25
2022-10-19T23:57:01.937Z,0.77
